sensor_id;sensor_type;location;lat;lon;timestamp;P1;durP1;ratioP1;P2;durP2;ratioP2
15500;SDS011;7852;52.228;5.990;2023-11-21T00:01:02;52.4;;;36.6;;
15500;SDS011;7852;52.228;5.990;2023-11-21T00:01:11;53.4;;;37;;
15500;SDS011;7852;52.228;5.990;2023-11-21T00:02:11;54.6;;;37.7;;
15500;SDS011;7852;52.228;5.990;2023-11-21T00:03:11;48.8;;;36.2;;
15500;SDS011;7852;52.228;5.990;2023-11-21T00:04:11;49.3;;;34.6;;
15500;SDS011;7852;52.228;5.990;2023-11-21T00:05:11;54.3;;;36.2;;
15500;SDS011;7852;52.228;5.990;2023-11-21T00:06:11;57;;;37.4;;
15500;SDS011;7852;52.228;5.990;2023-11-21T00:07:11;54.4;;;37.7;;
15500;SDS011;7852;52.228;5.990;2023-11-21T00:08:11;49.4;;;37.2;;
15500;SDS011;7852;52.228;5.990;2023-11-21T00:09:11;54.9;;;35.8;;
15500;SDS011;7852;52.228;5.990;2023-11-21T00:10:11;52.4;;;37.3;;
15500;SDS011;7852;52.228;5.990;2023-11-21T00:11:11;57.6;;;37.6;;
15500;SDS011;7852;52.228;5.990;2023-11-21T00:12:11;58.6;;;38.1;;
15500;SDS011;7852;52.228;5.990;2023-11-21T00:13:11;49.3;;;35.3;;
15500;SDS011;7852;52.228;5.990;2023-11-21T00:14:11;54.2;;;38.3;;
15500;SDS011;7852;52.228;5.990;2023-11-21T00:15:11;61.6;;;39.5;;
15500;SDS011;7852;52.228;5.990;2023-11-21T00:16:11;55;;;39.7;;
15500;SDS011;7852;52.228;5.990;2023-11-21T00:17:11;58.2;;;39.5;;
15500;SDS011;7852;52.228;5.990;2023-11-21T00:18:11;60.9;;;39.9;;
15500;SDS011;7852;52.228;5.990;2023-11-21T00:19:11;53.2;;;39.2;;
15500;SDS011;7852;52.228;5.990;2023-11-21T00:20:11;55;;;39;;
15500;SDS011;7852;52.228;5.990;2023-11-21T00:21:11;58;;;37.9;;
15500;SDS011;7852;52.228;5.990;2023-11-21T00:22:11;56.8;;;37.7;;
15500;SDS011;7852;52.228;5.990;2023-11-21T00:23:11;58.2;;;39.2;;
15500;SDS011;7852;52.228;5.990;2023-11-21T00:24:11;59.3;;;38.3;;
15500;SDS011;7852;52.228;5.990;2023-11-21T00:25:11;57.9;;;39.6;;
15500;SDS011;7852;52.228;5.990;2023-11-21T00:26:11;56.4;;;40.3;;
15500;SDS011;7852;52.228;5.990;2023-11-21T00:27:11;70;;;41.4;;
15500;SDS011;7852;52.228;5.990;2023-11-21T00:28:11;61.5;;;40.7;;
15500;SDS011;7852;52.228;5.990;2023-11-21T00:29:11;61.7;;;40.1;;
15500;SDS011;7852;52.228;5.990;2023-11-21T00:30:11;57;;;39.3;;
15500;SDS011;7852;52.228;5.990;2023-11-21T00:41:11;70.3;;;39.3;;
15500;SDS011;7852;52.228;5.990;2023-11-21T00:42:11;72.9;;;36.7;;
15500;SDS011;7852;52.228;5.990;2023-11-21T00:43:11;56.4;;;37.8;;
15500;SDS011;7852;52.228;5.990;2023-11-21T00:44:11;58.2;;;40.5;;
15500;SDS011;7852;52.228;5.990;2023-11-21T00:45:11;57.5;;;43.4;;
15500;SDS011;7852;52.228;5.990;2023-11-21T00:46:11;58.2;;;42.2;;
15500;SDS011;7852;52.228;5.990;2023-11-21T00:47:11;77;;;42.8;;
15500;SDS011;7852;52.228;5.990;2023-11-21T00:48:11;67.5;;;42.9;;
15500;SDS011;7852;52.228;5.990;2023-11-21T00:49:11;59.6;;;41.5;;
15500;SDS011;7852;52.228;5.990;2023-11-21T00:50:11;65.3;;;44.4;;
15500;SDS011;7852;52.228;5.990;2023-11-21T00:51:11;65.3;;;45.1;;
15500;SDS011;7852;52.228;5.990;2023-11-21T00:52:11;69.4;;;45.1;;
15500;SDS011;7852;52.228;5.990;2023-11-21T00:53:11;60.8;;;45.2;;
15500;SDS011;7852;52.228;5.990;2023-11-21T00:54:11;56.7;;;44.2;;
15500;SDS011;7852;52.228;5.990;2023-11-21T00:55:11;62.5;;;42.6;;
15500;SDS011;7852;52.228;5.990;2023-11-21T00:56:11;59.4;;;43;;
15500;SDS011;7852;52.228;5.990;2023-11-21T00:57:11;64.1;;;43.1;;
15500;SDS011;7852;52.228;5.990;2023-11-21T00:58:11;66.9;;;45.9;;
15500;SDS011;7852;52.228;5.990;2023-11-21T00:59:11;66.5;;;44.2;;
15500;SDS011;7852;52.228;5.990;2023-11-21T01:00:11;64.4;;;41.5;;
15500;SDS011;7852;52.228;5.990;2023-11-21T01:01:11;69.9;;;41.9;;
15500;SDS011;7852;52.228;5.990;2023-11-21T01:02:11;54.4;;;38.7;;
15500;SDS011;7852;52.228;5.990;2023-11-21T01:03:11;62.1;;;39.3;;
15500;SDS011;7852;52.228;5.990;2023-11-21T01:04:11;52.9;;;38.5;;
15500;SDS011;7852;52.228;5.990;2023-11-21T01:05:11;61;;;40;;
15500;SDS011;7852;52.228;5.990;2023-11-21T01:06:11;71.8;;;43.1;;
15500;SDS011;7852;52.228;5.990;2023-11-21T01:07:11;59;;;40.3;;
15500;SDS011;7852;52.228;5.990;2023-11-21T01:08:11;60.7;;;42.5;;
15500;SDS011;7852;52.228;5.990;2023-11-21T01:09:11;54.3;;;40;;
15500;SDS011;7852;52.228;5.990;2023-11-21T01:10:11;51.3;;;41.4;;
15500;SDS011;7852;52.228;5.990;2023-11-21T01:11:11;56.3;;;41.5;;
15500;SDS011;7852;52.228;5.990;2023-11-21T01:12:11;53.5;;;39.5;;
15500;SDS011;7852;52.228;5.990;2023-11-21T01:13:11;56.4;;;38.3;;
15500;SDS011;7852;52.228;5.990;2023-11-21T01:14:11;54.4;;;37.5;;
15500;SDS011;7852;52.228;5.990;2023-11-21T01:15:11;51.4;;;38.2;;
15500;SDS011;7852;52.228;5.990;2023-11-21T01:16:11;56.1;;;38.5;;
15500;SDS011;7852;52.228;5.990;2023-11-21T01:17:11;59.8;;;38.2;;
15500;SDS011;7852;52.228;5.990;2023-11-21T01:18:11;48.9;;;37.5;;
15500;SDS011;7852;52.228;5.990;2023-11-21T01:19:11;60.1;;;41.7;;
15500;SDS011;7852;52.228;5.990;2023-11-21T01:20:11;55.7;;;39.2;;
15500;SDS011;7852;52.228;5.990;2023-11-21T01:21:11;51.5;;;39.7;;
15500;SDS011;7852;52.228;5.990;2023-11-21T01:22:11;56.2;;;38.5;;
15500;SDS011;7852;52.228;5.990;2023-11-21T01:23:11;49.4;;;39.3;;
15500;SDS011;7852;52.228;5.990;2023-11-21T01:24:11;53;;;38.2;;
15500;SDS011;7852;52.228;5.990;2023-11-21T01:25:11;55.5;;;37.8;;
15500;SDS011;7852;52.228;5.990;2023-11-21T01:26:11;53.3;;;39.3;;
15500;SDS011;7852;52.228;5.990;2023-11-21T01:27:11;53.7;;;38.9;;
15500;SDS011;7852;52.228;5.990;2023-11-21T01:28:11;53.1;;;37.9;;
15500;SDS011;7852;52.228;5.990;2023-11-21T01:29:11;61.1;;;38.8;;
15500;SDS011;7852;52.228;5.990;2023-11-21T01:30:11;62.6;;;38.6;;
15500;SDS011;7852;52.228;5.990;2023-11-21T01:31:11;48.7;;;37.6;;
15500;SDS011;7852;52.228;5.990;2023-11-21T01:32:11;54;;;38.3;;
15500;SDS011;7852;52.228;5.990;2023-11-21T01:33:11;52.3;;;38.7;;
15500;SDS011;7852;52.228;5.990;2023-11-21T01:34:11;52.4;;;39.6;;
15500;SDS011;7852;52.228;5.990;2023-11-21T01:35:11;57.7;;;37.3;;
15500;SDS011;7852;52.228;5.990;2023-11-21T01:36:11;45.6;;;36.2;;
15500;SDS011;7852;52.228;5.990;2023-11-21T01:37:11;52.8;;;35.8;;
15500;SDS011;7852;52.228;5.990;2023-11-21T01:38:11;48.2;;;36.8;;
15500;SDS011;7852;52.228;5.990;2023-11-21T01:39:11;46.6;;;35;;
15500;SDS011;7852;52.228;5.990;2023-11-21T01:40:11;44.3;;;35.2;;
15500;SDS011;7852;52.228;5.990;2023-11-21T01:41:11;47.3;;;36;;
15500;SDS011;7852;52.228;5.990;2023-11-21T01:42:11;53.4;;;36.8;;
15500;SDS011;7852;52.228;5.990;2023-11-21T01:43:11;49.6;;;35.3;;
15500;SDS011;7852;52.228;5.990;2023-11-21T01:44:11;51.1;;;35.4;;
15500;SDS011;7852;52.228;5.990;2023-11-21T01:45:11;48;;;36.1;;
15500;SDS011;7852;52.228;5.990;2023-11-21T01:46:11;50.2;;;37;;
15500;SDS011;7852;52.228;5.990;2023-11-21T01:47:11;42.4;;;35.1;;
15500;SDS011;7852;52.228;5.990;2023-11-21T01:48:11;41.1;;;35.3;;
15500;SDS011;7852;52.228;5.990;2023-11-21T01:49:11;41;;;35.7;;
15500;SDS011;7852;52.228;5.990;2023-11-21T01:50:13;41.9;;;35.1;;
15500;SDS011;7852;52.228;5.990;2023-11-21T01:51:11;43.6;;;34.5;;
15500;SDS011;7852;52.228;5.990;2023-11-21T01:52:11;42.3;;;34;;
15500;SDS011;7852;52.228;5.990;2023-11-21T01:53:11;43.1;;;35;;
15500;SDS011;7852;52.228;5.990;2023-11-21T01:54:11;40.6;;;35.3;;
15500;SDS011;7852;52.228;5.990;2023-11-21T01:55:11;38.3;;;33.7;;
15500;SDS011;7852;52.228;5.990;2023-11-21T01:56:11;41.9;;;33.2;;
15500;SDS011;7852;52.228;5.990;2023-11-21T01:57:11;38.3;;;32.4;;
15500;SDS011;7852;52.228;5.990;2023-11-21T01:58:11;37.4;;;32.1;;
15500;SDS011;7852;52.228;5.990;2023-11-21T01:59:11;38;;;30.8;;
15500;SDS011;7852;52.228;5.990;2023-11-21T02:00:12;41.3;;;31.6;;
15500;SDS011;7852;52.228;5.990;2023-11-21T02:01:11;39.8;;;31.6;;
15500;SDS011;7852;52.228;5.990;2023-11-21T02:02:11;36.4;;;32.1;;
15500;SDS011;7852;52.228;5.990;2023-11-21T02:03:11;38.4;;;32.5;;
15500;SDS011;7852;52.228;5.990;2023-11-21T02:04:11;36.3;;;30.3;;
15500;SDS011;7852;52.228;5.990;2023-11-21T02:05:11;37.8;;;31.5;;
15500;SDS011;7852;52.228;5.990;2023-11-21T02:06:11;40.5;;;32.2;;
15500;SDS011;7852;52.228;5.990;2023-11-21T02:07:11;38.8;;;31.4;;
15500;SDS011;7852;52.228;5.990;2023-11-21T02:08:11;36.4;;;30.5;;
15500;SDS011;7852;52.228;5.990;2023-11-21T02:09:11;35.6;;;30.5;;
15500;SDS011;7852;52.228;5.990;2023-11-21T02:10:11;37.3;;;29.8;;
15500;SDS011;7852;52.228;5.990;2023-11-21T02:11:11;36.6;;;29.9;;
15500;SDS011;7852;52.228;5.990;2023-11-21T02:12:11;38.2;;;30.8;;
15500;SDS011;7852;52.228;5.990;2023-11-21T02:13:11;35.5;;;29.7;;
15500;SDS011;7852;52.228;5.990;2023-11-21T02:14:11;34.7;;;30.8;;
15500;SDS011;7852;52.228;5.990;2023-11-21T02:15:11;38.3;;;30.6;;
15500;SDS011;7852;52.228;5.990;2023-11-21T02:16:11;34.1;;;30.5;;
15500;SDS011;7852;52.228;5.990;2023-11-21T02:17:11;40.3;;;30.9;;
15500;SDS011;7852;52.228;5.990;2023-11-21T02:18:11;35.9;;;28.8;;
15500;SDS011;7852;52.228;5.990;2023-11-21T02:19:11;38.2;;;30.6;;
15500;SDS011;7852;52.228;5.990;2023-11-21T02:20:11;38.3;;;30.5;;
15500;SDS011;7852;52.228;5.990;2023-11-21T02:21:11;38.3;;;30.6;;
15500;SDS011;7852;52.228;5.990;2023-11-21T02:22:11;34.5;;;30.5;;
15500;SDS011;7852;52.228;5.990;2023-11-21T02:23:11;36.6;;;31;;
15500;SDS011;7852;52.228;5.990;2023-11-21T02:24:11;37.1;;;28.7;;
15500;SDS011;7852;52.228;5.990;2023-11-21T02:25:11;39.7;;;29.8;;
15500;SDS011;7852;52.228;5.990;2023-11-21T02:26:11;34.8;;;31;;
15500;SDS011;7852;52.228;5.990;2023-11-21T02:27:11;37.3;;;31.3;;
15500;SDS011;7852;52.228;5.990;2023-11-21T02:28:11;36.3;;;30.5;;
15500;SDS011;7852;52.228;5.990;2023-11-21T02:29:11;42.4;;;31.4;;
15500;SDS011;7852;52.228;5.990;2023-11-21T02:30:11;33.2;;;29.7;;
15500;SDS011;7852;52.228;5.990;2023-11-21T02:31:11;34.3;;;30.4;;
15500;SDS011;7852;52.228;5.990;2023-11-21T02:32:11;32.8;;;29.2;;
15500;SDS011;7852;52.228;5.990;2023-11-21T02:33:11;38.9;;;30.2;;
15500;SDS011;7852;52.228;5.990;2023-11-21T02:34:11;34.4;;;28.3;;
15500;SDS011;7852;52.228;5.990;2023-11-21T02:35:11;35.5;;;29.7;;
15500;SDS011;7852;52.228;5.990;2023-11-21T02:36:11;38.4;;;29.8;;
15500;SDS011;7852;52.228;5.990;2023-11-21T02:37:11;44.1;;;30.7;;
15500;SDS011;7852;52.228;5.990;2023-11-21T02:38:11;35.7;;;29.7;;
15500;SDS011;7852;52.228;5.990;2023-11-21T02:39:11;36.5;;;29.2;;
15500;SDS011;7852;52.228;5.990;2023-11-21T02:40:11;37.1;;;29;;
15500;SDS011;7852;52.228;5.990;2023-11-21T02:41:11;43.9;;;30;;
15500;SDS011;7852;52.228;5.990;2023-11-21T02:42:11;43;;;30.1;;
15500;SDS011;7852;52.228;5.990;2023-11-21T02:43:11;39.5;;;29.8;;
15500;SDS011;7852;52.228;5.990;2023-11-21T02:44:11;37.4;;;29.4;;
15500;SDS011;7852;52.228;5.990;2023-11-21T02:45:12;38.1;;;28.8;;
15500;SDS011;7852;52.228;5.990;2023-11-21T02:46:11;33.1;;;28;;
15500;SDS011;7852;52.228;5.990;2023-11-21T02:47:11;35;;;30.7;;
15500;SDS011;7852;52.228;5.990;2023-11-21T02:48:11;38.4;;;30.2;;
15500;SDS011;7852;52.228;5.990;2023-11-21T02:49:11;36.6;;;28.7;;
15500;SDS011;7852;52.228;5.990;2023-11-21T02:50:11;32.2;;;27.4;;
15500;SDS011;7852;52.228;5.990;2023-11-21T02:51:11;35.6;;;27.2;;
15500;SDS011;7852;52.228;5.990;2023-11-21T02:52:11;32.9;;;26.9;;
15500;SDS011;7852;52.228;5.990;2023-11-21T02:53:11;36.4;;;27.1;;
15500;SDS011;7852;52.228;5.990;2023-11-21T02:54:11;40.9;;;28.7;;
15500;SDS011;7852;52.228;5.990;2023-11-21T02:55:11;36.1;;;27.6;;
15500;SDS011;7852;52.228;5.990;2023-11-21T02:56:11;37;;;27.2;;
15500;SDS011;7852;52.228;5.990;2023-11-21T02:57:11;39.8;;;28;;
15500;SDS011;7852;52.228;5.990;2023-11-21T02:58:11;35.1;;;28.3;;
15500;SDS011;7852;52.228;5.990;2023-11-21T02:59:11;29.7;;;26.5;;
15500;SDS011;7852;52.228;5.990;2023-11-21T03:00:11;33.8;;;27.6;;
15500;SDS011;7852;52.228;5.990;2023-11-21T03:01:11;33;;;28.5;;
15500;SDS011;7852;52.228;5.990;2023-11-21T03:02:11;38.7;;;27.2;;
15500;SDS011;7852;52.228;5.990;2023-11-21T03:03:11;38.9;;;28.1;;
15500;SDS011;7852;52.228;5.990;2023-11-21T03:04:11;36.5;;;27.4;;
15500;SDS011;7852;52.228;5.990;2023-11-21T05:21:25;31.6;;;18.1;;
15500;SDS011;7852;52.228;5.990;2023-11-21T05:22:25;38.4;;;23;;
15500;SDS011;7852;52.228;5.990;2023-11-21T05:23:25;31.4;;;21.9;;
15500;SDS011;7852;52.228;5.990;2023-11-21T05:24:25;31.1;;;22.7;;
15500;SDS011;7852;52.228;5.990;2023-11-21T05:25:25;38.1;;;23;;
15500;SDS011;7852;52.228;5.990;2023-11-21T05:26:25;36.1;;;25.4;;
15500;SDS011;7852;52.228;5.990;2023-11-21T05:27:25;42.3;;;27.7;;
15500;SDS011;7852;52.228;5.990;2023-11-21T05:28:25;37;;;26.6;;
15500;SDS011;7852;52.228;5.990;2023-11-21T05:29:25;35.1;;;27.1;;
15500;SDS011;7852;52.228;5.990;2023-11-21T05:30:25;39.5;;;26.8;;
15500;SDS011;7852;52.228;5.990;2023-11-21T05:31:25;42;;;27.4;;
15500;SDS011;7852;52.228;5.990;2023-11-21T05:32:25;36.3;;;25.9;;
15500;SDS011;7852;52.228;5.990;2023-11-21T05:33:25;37;;;26.4;;
15500;SDS011;7852;52.228;5.990;2023-11-21T05:34:25;34.7;;;25.8;;
15500;SDS011;7852;52.228;5.990;2023-11-21T05:35:25;35.3;;;27.7;;
15500;SDS011;7852;52.228;5.990;2023-11-21T05:36:25;41;;;29.7;;
15500;SDS011;7852;52.228;5.990;2023-11-21T05:37:25;35.7;;;28.5;;
15500;SDS011;7852;52.228;5.990;2023-11-21T05:38:25;36;;;29.1;;
15500;SDS011;7852;52.228;5.990;2023-11-21T05:39:25;35.9;;;28.4;;
15500;SDS011;7852;52.228;5.990;2023-11-21T05:40:25;36.8;;;28.3;;
15500;SDS011;7852;52.228;5.990;2023-11-21T05:41:25;39.8;;;29.8;;
15500;SDS011;7852;52.228;5.990;2023-11-21T05:42:25;39.6;;;28.5;;
15500;SDS011;7852;52.228;5.990;2023-11-21T05:43:25;44.1;;;31.4;;
15500;SDS011;7852;52.228;5.990;2023-11-21T05:44:25;35.4;;;31.2;;
15500;SDS011;7852;52.228;5.990;2023-11-21T05:45:25;34.8;;;29.7;;
15500;SDS011;7852;52.228;5.990;2023-11-21T05:46:25;33.2;;;29.5;;
15500;SDS011;7852;52.228;5.990;2023-11-21T05:47:25;40.5;;;30;;
15500;SDS011;7852;52.228;5.990;2023-11-21T05:48:25;33.8;;;29.5;;
15500;SDS011;7852;52.228;5.990;2023-11-21T05:49:25;39.3;;;29.8;;
15500;SDS011;7852;52.228;5.990;2023-11-21T05:50:25;43.9;;;30.3;;
15500;SDS011;7852;52.228;5.990;2023-11-21T05:51:25;42.1;;;31.9;;
15500;SDS011;7852;52.228;5.990;2023-11-21T05:52:25;39.2;;;31.6;;
15500;SDS011;7852;52.228;5.990;2023-11-21T05:53:25;39.2;;;31.3;;
15500;SDS011;7852;52.228;5.990;2023-11-21T05:54:25;45.1;;;32.4;;
15500;SDS011;7852;52.228;5.990;2023-11-21T05:55:25;38.6;;;33.1;;
15500;SDS011;7852;52.228;5.990;2023-11-21T05:56:25;42.8;;;34.4;;
15500;SDS011;7852;52.228;5.990;2023-11-21T05:57:25;38.1;;;30.6;;
15500;SDS011;7852;52.228;5.990;2023-11-21T05:58:25;40.4;;;31.2;;
15500;SDS011;7852;52.228;5.990;2023-11-21T05:59:25;46.5;;;32.2;;
15500;SDS011;7852;52.228;5.990;2023-11-21T06:00:25;44.7;;;33.3;;
15500;SDS011;7852;52.228;5.990;2023-11-21T06:01:25;42;;;33.3;;
15500;SDS011;7852;52.228;5.990;2023-11-21T06:02:25;47;;;34.1;;
15500;SDS011;7852;52.228;5.990;2023-11-21T06:03:25;49.4;;;32.9;;
15500;SDS011;7852;52.228;5.990;2023-11-21T06:04:25;44.9;;;33.7;;
15500;SDS011;7852;52.228;5.990;2023-11-21T06:05:25;38;;;33.5;;
15500;SDS011;7852;52.228;5.990;2023-11-21T06:06:25;42.5;;;33.1;;
15500;SDS011;7852;52.228;5.990;2023-11-21T06:07:25;36.5;;;32.4;;
15500;SDS011;7852;52.228;5.990;2023-11-21T06:08:25;42.8;;;31.8;;
15500;SDS011;7852;52.228;5.990;2023-11-21T06:09:25;49.5;;;34.2;;
15500;SDS011;7852;52.228;5.990;2023-11-21T06:10:25;42.5;;;32.4;;
15500;SDS011;7852;52.228;5.990;2023-11-21T06:11:25;39.8;;;31.3;;
15500;SDS011;7852;52.228;5.990;2023-11-21T06:12:25;41.3;;;31.2;;
15500;SDS011;7852;52.228;5.990;2023-11-21T06:13:25;40;;;30.4;;
15500;SDS011;7852;52.228;5.990;2023-11-21T06:14:25;43.3;;;32.5;;
15500;SDS011;7852;52.228;5.990;2023-11-21T06:15:25;41.1;;;32.2;;
15500;SDS011;7852;52.228;5.990;2023-11-21T06:16:25;42;;;29.8;;
15500;SDS011;7852;52.228;5.990;2023-11-21T06:17:25;38.7;;;30;;
15500;SDS011;7852;52.228;5.990;2023-11-21T06:18:25;36.4;;;29.6;;
15500;SDS011;7852;52.228;5.990;2023-11-21T06:19:25;43.5;;;30.2;;
15500;SDS011;7852;52.228;5.990;2023-11-21T06:20:25;41.1;;;29.1;;
15500;SDS011;7852;52.228;5.990;2023-11-21T06:21:25;39.3;;;30.5;;
15500;SDS011;7852;52.228;5.990;2023-11-21T06:22:25;38.4;;;30.4;;
15500;SDS011;7852;52.228;5.990;2023-11-21T06:23:25;45.7;;;31.1;;
15500;SDS011;7852;52.228;5.990;2023-11-21T06:24:25;36.4;;;29.1;;
15500;SDS011;7852;52.228;5.990;2023-11-21T06:25:25;46.5;;;31.6;;
15500;SDS011;7852;52.228;5.990;2023-11-21T06:26:26;39.9;;;29.3;;
15500;SDS011;7852;52.228;5.990;2023-11-21T06:27:25;41.5;;;31.5;;
15500;SDS011;7852;52.228;5.990;2023-11-21T06:28:25;40.1;;;29.6;;
15500;SDS011;7852;52.228;5.990;2023-11-21T06:29:25;41.8;;;30;;
15500;SDS011;7852;52.228;5.990;2023-11-21T06:30:25;42.5;;;31.6;;
15500;SDS011;7852;52.228;5.990;2023-11-21T06:31:25;47.2;;;31.9;;
15500;SDS011;7852;52.228;5.990;2023-11-21T06:32:25;38.6;;;32;;
15500;SDS011;7852;52.228;5.990;2023-11-21T06:33:25;37.5;;;29.7;;
15500;SDS011;7852;52.228;5.990;2023-11-21T06:34:25;41.2;;;29;;
15500;SDS011;7852;52.228;5.990;2023-11-21T06:35:25;42.8;;;30.1;;
15500;SDS011;7852;52.228;5.990;2023-11-21T06:36:25;36.4;;;29;;
15500;SDS011;7852;52.228;5.990;2023-11-21T06:37:26;40.8;;;29.7;;
15500;SDS011;7852;52.228;5.990;2023-11-21T06:38:25;37.2;;;28.7;;
15500;SDS011;7852;52.228;5.990;2023-11-21T06:39:25;38.2;;;30;;
15500;SDS011;7852;52.228;5.990;2023-11-21T06:40:25;43.3;;;29.7;;
15500;SDS011;7852;52.228;5.990;2023-11-21T06:41:25;39.1;;;28.5;;
15500;SDS011;7852;52.228;5.990;2023-11-21T06:42:25;33.9;;;28.9;;
15500;SDS011;7852;52.228;5.990;2023-11-21T06:43:25;42.2;;;30.1;;
15500;SDS011;7852;52.228;5.990;2023-11-21T06:44:25;38;;;28.2;;
15500;SDS011;7852;52.228;5.990;2023-11-21T06:45:25;39.8;;;28.4;;
15500;SDS011;7852;52.228;5.990;2023-11-21T06:46:25;43.2;;;29.1;;
15500;SDS011;7852;52.228;5.990;2023-11-21T06:47:25;46.8;;;29.8;;
15500;SDS011;7852;52.228;5.990;2023-11-21T06:48:25;36.9;;;28.2;;
15500;SDS011;7852;52.228;5.990;2023-11-21T06:49:25;38.2;;;29.6;;
15500;SDS011;7852;52.228;5.990;2023-11-21T06:50:25;41.3;;;29.4;;
15500;SDS011;7852;52.228;5.990;2023-11-21T06:51:25;37.6;;;30.4;;
15500;SDS011;7852;52.228;5.990;2023-11-21T06:52:25;45.9;;;29.9;;
15500;SDS011;7852;52.228;5.990;2023-11-21T06:53:25;56.8;;;32.2;;
15500;SDS011;7852;52.228;5.990;2023-11-21T06:54:26;44.9;;;28.6;;
15500;SDS011;7852;52.228;5.990;2023-11-21T06:55:25;43.7;;;29.5;;
15500;SDS011;7852;52.228;5.990;2023-11-21T06:56:25;38.6;;;29.2;;
15500;SDS011;7852;52.228;5.990;2023-11-21T06:57:25;40.3;;;28.2;;
15500;SDS011;7852;52.228;5.990;2023-11-21T06:58:25;40.2;;;29.4;;
15500;SDS011;7852;52.228;5.990;2023-11-21T06:59:25;44.2;;;27.7;;
15500;SDS011;7852;52.228;5.990;2023-11-21T07:00:25;45.1;;;27;;
15500;SDS011;7852;52.228;5.990;2023-11-21T07:01:25;43.1;;;27.8;;
15500;SDS011;7852;52.228;5.990;2023-11-21T07:02:25;40.8;;;26.8;;
15500;SDS011;7852;52.228;5.990;2023-11-21T07:03:25;37.2;;;25.8;;
15500;SDS011;7852;52.228;5.990;2023-11-21T07:04:25;47.6;;;27.7;;
15500;SDS011;7852;52.228;5.990;2023-11-21T07:05:25;47.5;;;27.2;;
15500;SDS011;7852;52.228;5.990;2023-11-21T07:06:25;44.6;;;26.3;;
15500;SDS011;7852;52.228;5.990;2023-11-21T07:07:25;36.3;;;27.1;;
15500;SDS011;7852;52.228;5.990;2023-11-21T07:08:25;38.9;;;25.5;;
15500;SDS011;7852;52.228;5.990;2023-11-21T07:09:25;50.6;;;26.8;;
15500;SDS011;7852;52.228;5.990;2023-11-21T07:10:25;42.7;;;27;;
15500;SDS011;7852;52.228;5.990;2023-11-21T07:11:25;46;;;26.6;;
15500;SDS011;7852;52.228;5.990;2023-11-21T07:12:25;43.6;;;28.4;;
15500;SDS011;7852;52.228;5.990;2023-11-21T07:13:25;40.4;;;26.9;;
15500;SDS011;7852;52.228;5.990;2023-11-21T07:14:25;40.9;;;28;;
15500;SDS011;7852;52.228;5.990;2023-11-21T07:15:25;47.9;;;29.6;;
15500;SDS011;7852;52.228;5.990;2023-11-21T07:16:25;47.1;;;29.4;;
15500;SDS011;7852;52.228;5.990;2023-11-21T07:17:25;44;;;29.3;;
15500;SDS011;7852;52.228;5.990;2023-11-21T07:18:25;40.1;;;27.8;;
15500;SDS011;7852;52.228;5.990;2023-11-21T07:19:25;42.2;;;28.3;;
15500;SDS011;7852;52.228;5.990;2023-11-21T07:20:25;47.7;;;29.9;;
15500;SDS011;7852;52.228;5.990;2023-11-21T07:21:25;46.3;;;30;;
15500;SDS011;7852;52.228;5.990;2023-11-21T07:22:25;54.1;;;30.2;;
15500;SDS011;7852;52.228;5.990;2023-11-21T07:23:25;46.5;;;29.4;;
15500;SDS011;7852;52.228;5.990;2023-11-21T07:24:25;56.7;;;32.5;;
15500;SDS011;7852;52.228;5.990;2023-11-21T07:25:25;45.3;;;28.7;;
15500;SDS011;7852;52.228;5.990;2023-11-21T07:26:25;48.8;;;31.1;;
15500;SDS011;7852;52.228;5.990;2023-11-21T07:27:25;53;;;31.4;;
15500;SDS011;7852;52.228;5.990;2023-11-21T07:28:25;50.8;;;31.1;;
15500;SDS011;7852;52.228;5.990;2023-11-21T07:29:25;45.8;;;28.5;;
15500;SDS011;7852;52.228;5.990;2023-11-21T07:30:25;53.7;;;30.2;;
15500;SDS011;7852;52.228;5.990;2023-11-21T07:31:25;51;;;29.6;;
15500;SDS011;7852;52.228;5.990;2023-11-21T07:32:25;53.4;;;29.5;;
15500;SDS011;7852;52.228;5.990;2023-11-21T07:33:25;47.6;;;29.8;;
15500;SDS011;7852;52.228;5.990;2023-11-21T07:34:25;55.4;;;30.6;;
15500;SDS011;7852;52.228;5.990;2023-11-21T07:35:25;57.2;;;31.4;;
15500;SDS011;7852;52.228;5.990;2023-11-21T07:36:25;58.5;;;30.3;;
15500;SDS011;7852;52.228;5.990;2023-11-21T07:37:25;51.4;;;30.9;;
15500;SDS011;7852;52.228;5.990;2023-11-21T07:38:26;51.3;;;29.6;;
15500;SDS011;7852;52.228;5.990;2023-11-21T07:39:25;59;;;31;;
15500;SDS011;7852;52.228;5.990;2023-11-21T07:40:25;54.8;;;30.3;;
15500;SDS011;7852;52.228;5.990;2023-11-21T07:41:25;49.4;;;30.5;;
15500;SDS011;7852;52.228;5.990;2023-11-21T07:42:25;60.7;;;33.2;;
15500;SDS011;7852;52.228;5.990;2023-11-21T07:43:25;48.6;;;31.8;;
15500;SDS011;7852;52.228;5.990;2023-11-21T07:44:25;49.1;;;31;;
15500;SDS011;7852;52.228;5.990;2023-11-21T07:45:25;59.8;;;32.5;;
15500;SDS011;7852;52.228;5.990;2023-11-21T07:46:25;61.6;;;33;;
15500;SDS011;7852;52.228;5.990;2023-11-21T07:47:25;58.9;;;31.3;;
15500;SDS011;7852;52.228;5.990;2023-11-21T07:48:25;54.3;;;31.8;;
15500;SDS011;7852;52.228;5.990;2023-11-21T07:49:25;52;;;32.5;;
15500;SDS011;7852;52.228;5.990;2023-11-21T07:50:25;57.1;;;31.9;;
15500;SDS011;7852;52.228;5.990;2023-11-21T07:51:25;51.7;;;32.6;;
15500;SDS011;7852;52.228;5.990;2023-11-21T07:52:25;55.5;;;32.6;;
15500;SDS011;7852;52.228;5.990;2023-11-21T07:53:25;54.9;;;30.7;;
15500;SDS011;7852;52.228;5.990;2023-11-21T07:54:25;61.4;;;32.7;;
15500;SDS011;7852;52.228;5.990;2023-11-21T07:55:25;45.8;;;31;;
15500;SDS011;7852;52.228;5.990;2023-11-21T07:56:25;52.2;;;30.8;;
15500;SDS011;7852;52.228;5.990;2023-11-21T07:57:25;51.9;;;30.4;;
15500;SDS011;7852;52.228;5.990;2023-11-21T07:58:25;53.8;;;30;;
15500;SDS011;7852;52.228;5.990;2023-11-21T07:59:25;59.5;;;30.5;;
15500;SDS011;7852;52.228;5.990;2023-11-21T08:00:25;54.1;;;31.3;;
15500;SDS011;7852;52.228;5.990;2023-11-21T08:01:25;57.2;;;31.1;;
15500;SDS011;7852;52.228;5.990;2023-11-21T08:02:25;75.7;;;32.5;;
15500;SDS011;7852;52.228;5.990;2023-11-21T08:03:25;58.6;;;30.7;;
15500;SDS011;7852;52.228;5.990;2023-11-21T08:04:25;76.8;;;31.2;;
15500;SDS011;7852;52.228;5.990;2023-11-21T08:05:25;73.5;;;31.9;;
15500;SDS011;7852;52.228;5.990;2023-11-21T08:06:25;75;;;33;;
15500;SDS011;7852;52.228;5.990;2023-11-21T08:07:25;53.6;;;29;;
15500;SDS011;7852;52.228;5.990;2023-11-21T08:08:25;69.5;;;32.9;;
15500;SDS011;7852;52.228;5.990;2023-11-21T08:09:25;77.9;;;33.8;;
15500;SDS011;7852;52.228;5.990;2023-11-21T08:10:25;83.8;;;33.6;;
15500;SDS011;7852;52.228;5.990;2023-11-21T08:11:25;71;;;34.6;;
15500;SDS011;7852;52.228;5.990;2023-11-21T08:12:25;68.8;;;34.4;;
15500;SDS011;7852;52.228;5.990;2023-11-21T08:13:26;61.3;;;34;;
15500;SDS011;7852;52.228;5.990;2023-11-21T08:14:25;66.3;;;33.5;;
15500;SDS011;7852;52.228;5.990;2023-11-21T08:15:26;72.4;;;35.3;;
15500;SDS011;7852;52.228;5.990;2023-11-21T08:16:25;78.8;;;35;;
15500;SDS011;7852;52.228;5.990;2023-11-21T08:17:25;83.9;;;37.3;;
15500;SDS011;7852;52.228;5.990;2023-11-21T08:18:25;80;;;37.4;;
15500;SDS011;7852;52.228;5.990;2023-11-21T08:19:25;83.7;;;34.9;;
15500;SDS011;7852;52.228;5.990;2023-11-21T08:20:25;82.3;;;37.8;;
15500;SDS011;7852;52.228;5.990;2023-11-21T08:21:25;87.9;;;36.9;;
15500;SDS011;7852;52.228;5.990;2023-11-21T08:22:25;91.9;;;38.1;;
15500;SDS011;7852;52.228;5.990;2023-11-21T08:23:25;75.3;;;34.9;;
15500;SDS011;7852;52.228;5.990;2023-11-21T08:24:25;89;;;36;;
15500;SDS011;7852;52.228;5.990;2023-11-21T08:25:25;113.4;;;38.3;;
15500;SDS011;7852;52.228;5.990;2023-11-21T08:26:25;99.6;;;36.9;;
15500;SDS011;7852;52.228;5.990;2023-11-21T08:27:25;100.7;;;36.4;;
15500;SDS011;7852;52.228;5.990;2023-11-21T08:28:25;99.2;;;36.3;;
15500;SDS011;7852;52.228;5.990;2023-11-21T08:29:25;105.3;;;38.4;;
15500;SDS011;7852;52.228;5.990;2023-11-21T08:30:25;119.6;;;38.6;;
15500;SDS011;7852;52.228;5.990;2023-11-21T08:31:25;106.2;;;34.5;;
15500;SDS011;7852;52.228;5.990;2023-11-21T08:32:25;113.9;;;35.4;;
15500;SDS011;7852;52.228;5.990;2023-11-21T08:33:25;104.6;;;34.9;;
15500;SDS011;7852;52.228;5.990;2023-11-21T08:34:25;69.8;;;32.6;;
15500;SDS011;7852;52.228;5.990;2023-11-21T08:35:25;118;;;35.4;;